sensor_id;sensor_type;location;lat;lon;timestamp;P1;durP1;ratioP1;P2;durP2;ratioP2
5987;SDS011;3021;51.000;6.980;2023-12-22T00:00:08;6.88;;;1.20;;
5987;SDS011;3021;51.000;6.980;2023-12-22T00:02:34;6.22;;;1.52;;
5987;SDS011;3021;51.000;6.980;2023-12-22T00:04:59;4.82;;;1.35;;
5987;SDS011;3021;51.000;6.980;2023-12-22T00:07:24;7.53;;;1.80;;
5987;SDS011;3021;51.000;6.980;2023-12-22T00:09:50;4.68;;;1.10;;
5987;SDS011;3021;51.000;6.980;2023-12-22T00:12:15;4.85;;;1.50;;
5987;SDS011;3021;51.000;6.980;2023-12-22T00:14:41;4.63;;;1.02;;
5987;SDS011;3021;51.000;6.980;2023-12-22T00:17:07;6.93;;;1.60;;
5987;SDS011;3021;51.000;6.980;2023-12-22T00:19:32;6.97;;;1.42;;
5987;SDS011;3021;51.000;6.980;2023-12-22T00:21:58;6.45;;;1.40;;
5987;SDS011;3021;51.000;6.980;2023-12-22T00:24:23;9.80;;;1.45;;
5987;SDS011;3021;51.000;6.980;2023-12-22T00:26:49;9.52;;;1.30;;
5987;SDS011;3021;51.000;6.980;2023-12-22T00:29:14;10.20;;;1.60;;
5987;SDS011;3021;51.000;6.980;2023-12-22T00:31:40;11.90;;;1.63;;
5987;SDS011;3021;51.000;6.980;2023-12-22T00:34:06;11.57;;;1.90;;
5987;SDS011;3021;51.000;6.980;2023-12-22T00:36:31;11.80;;;1.90;;
5987;SDS011;3021;51.000;6.980;2023-12-22T00:38:56;11.02;;;2.30;;
5987;SDS011;3021;51.000;6.980;2023-12-22T00:41:22;6.75;;;1.65;;
5987;SDS011;3021;51.000;6.980;2023-12-22T00:43:47;8.73;;;1.95;;
5987;SDS011;3021;51.000;6.980;2023-12-22T00:46:13;7.60;;;1.52;;
5987;SDS011;3021;51.000;6.980;2023-12-22T00:48:38;15.95;;;1.85;;
5987;SDS011;3021;51.000;6.980;2023-12-22T00:51:05;9.82;;;1.60;;
5987;SDS011;3021;51.000;6.980;2023-12-22T00:53:32;11.52;;;1.75;;
5987;SDS011;3021;51.000;6.980;2023-12-22T00:55:57;12.80;;;1.75;;
5987;SDS011;3021;51.000;6.980;2023-12-22T00:58:24;9.93;;;1.80;;
5987;SDS011;3021;51.000;6.980;2023-12-22T01:00:49;9.30;;;2.50;;
5987;SDS011;3021;51.000;6.980;2023-12-22T01:03:15;14.52;;;2.20;;
5987;SDS011;3021;51.000;6.980;2023-12-22T01:05:40;14.35;;;2.83;;
5987;SDS011;3021;51.000;6.980;2023-12-22T01:08:05;8.63;;;2.13;;
5987;SDS011;3021;51.000;6.980;2023-12-22T01:10:31;8.85;;;1.77;;
5987;SDS011;3021;51.000;6.980;2023-12-22T01:12:56;8.20;;;2.15;;
5987;SDS011;3021;51.000;6.980;2023-12-22T01:15:22;10.20;;;1.60;;
5987;SDS011;3021;51.000;6.980;2023-12-22T01:17:47;9.10;;;1.58;;
5987;SDS011;3021;51.000;6.980;2023-12-22T01:20:13;13.32;;;2.05;;
5987;SDS011;3021;51.000;6.980;2023-12-22T01:22:38;11.50;;;1.60;;
5987;SDS011;3021;51.000;6.980;2023-12-22T01:25:04;11.70;;;2.25;;
5987;SDS011;3021;51.000;6.980;2023-12-22T01:27:30;15.23;;;1.90;;
5987;SDS011;3021;51.000;6.980;2023-12-22T01:29:56;15.45;;;2.08;;
5987;SDS011;3021;51.000;6.980;2023-12-22T01:32:21;10.10;;;1.85;;
5987;SDS011;3021;51.000;6.980;2023-12-22T01:34:47;13.32;;;2.63;;
5987;SDS011;3021;51.000;6.980;2023-12-22T01:37:12;16.48;;;2.20;;
5987;SDS011;3021;51.000;6.980;2023-12-22T01:39:37;15.32;;;2.05;;
5987;SDS011;3021;51.000;6.980;2023-12-22T01:42:03;10.63;;;1.70;;
5987;SDS011;3021;51.000;6.980;2023-12-22T01:44:29;10.88;;;1.80;;
5987;SDS011;3021;51.000;6.980;2023-12-22T01:46:54;11.93;;;2.15;;
5987;SDS011;3021;51.000;6.980;2023-12-22T01:49:21;12.50;;;2.03;;
5987;SDS011;3021;51.000;6.980;2023-12-22T01:51:48;20.77;;;1.80;;
5987;SDS011;3021;51.000;6.980;2023-12-22T01:54:14;13.55;;;2.03;;
5987;SDS011;3021;51.000;6.980;2023-12-22T01:56:43;15.27;;;2.35;;
5987;SDS011;3021;51.000;6.980;2023-12-22T01:59:10;7.00;;;1.60;;
5987;SDS011;3021;51.000;6.980;2023-12-22T02:01:36;16.48;;;1.77;;
5987;SDS011;3021;51.000;6.980;2023-12-22T02:04:02;9.80;;;2.10;;
5987;SDS011;3021;51.000;6.980;2023-12-22T02:06:29;11.13;;;1.95;;
5987;SDS011;3021;51.000;6.980;2023-12-22T02:08:57;12.10;;;1.98;;
5987;SDS011;3021;51.000;6.980;2023-12-22T02:11:23;10.50;;;2.22;;
5987;SDS011;3021;51.000;6.980;2023-12-22T02:13:48;12.13;;;2.08;;
5987;SDS011;3021;51.000;6.980;2023-12-22T02:16:50;14.73;;;2.13;;
5987;SDS011;3021;51.000;6.980;2023-12-22T02:19:50;9.20;;;1.88;;
5987;SDS011;3021;51.000;6.980;2023-12-22T02:22:10;9.40;;;1.85;;
5987;SDS011;3021;51.000;6.980;2023-12-22T02:24:37;9.70;;;1.95;;
5987;SDS011;3021;51.000;6.980;2023-12-22T02:27:48;11.30;;;1.77;;
5987;SDS011;3021;51.000;6.980;2023-12-22T02:29:58;8.95;;;2.03;;
5987;SDS011;3021;51.000;6.980;2023-12-22T02:32:48;9.02;;;2.30;;
5987;SDS011;3021;51.000;6.980;2023-12-22T02:35:17;18.33;;;2.75;;
5987;SDS011;3021;51.000;6.980;2023-12-22T02:37:48;15.07;;;2.30;;
5987;SDS011;3021;51.000;6.980;2023-12-22T02:40:15;17.88;;;2.50;;
5987;SDS011;3021;51.000;6.980;2023-12-22T02:42:42;21.35;;;2.88;;
5987;SDS011;3021;51.000;6.980;2023-12-22T02:45:16;16.15;;;2.70;;
5987;SDS011;3021;51.000;6.980;2023-12-22T02:47:42;16.02;;;3.25;;
5987;SDS011;3021;51.000;6.980;2023-12-22T02:50:09;14.38;;;2.42;;
5987;SDS011;3021;51.000;6.980;2023-12-22T02:52:35;13.48;;;2.38;;
5987;SDS011;3021;51.000;6.980;2023-12-22T02:55:01;16.08;;;2.15;;
5987;SDS011;3021;51.000;6.980;2023-12-22T02:57:27;20.60;;;2.92;;
5987;SDS011;3021;51.000;6.980;2023-12-22T02:59:52;19.83;;;2.83;;
5987;SDS011;3021;51.000;6.980;2023-12-22T03:02:18;13.85;;;2.95;;
5987;SDS011;3021;51.000;6.980;2023-12-22T03:04:43;24.92;;;2.63;;
5987;SDS011;3021;51.000;6.980;2023-12-22T03:07:08;20.42;;;2.80;;
5987;SDS011;3021;51.000;6.980;2023-12-22T03:09:34;14.27;;;2.85;;
5987;SDS011;3021;51.000;6.980;2023-12-22T03:11:59;11.00;;;2.38;;
5987;SDS011;3021;51.000;6.980;2023-12-22T03:14:30;15.82;;;3.08;;
5987;SDS011;3021;51.000;6.980;2023-12-22T03:16:58;20.88;;;4.03;;
5987;SDS011;3021;51.000;6.980;2023-12-22T03:19:23;17.90;;;2.75;;
5987;SDS011;3021;51.000;6.980;2023-12-22T03:21:49;13.20;;;2.70;;
5987;SDS011;3021;51.000;6.980;2023-12-22T03:24:14;18.58;;;2.97;;
5987;SDS011;3021;51.000;6.980;2023-12-22T03:26:39;15.43;;;2.58;;
5987;SDS011;3021;51.000;6.980;2023-12-22T03:29:05;15.57;;;2.58;;
5987;SDS011;3021;51.000;6.980;2023-12-22T03:31:30;15.65;;;3.10;;
5987;SDS011;3021;51.000;6.980;2023-12-22T03:33:55;13.85;;;2.78;;
5987;SDS011;3021;51.000;6.980;2023-12-22T03:36:21;15.05;;;3.65;;
5987;SDS011;3021;51.000;6.980;2023-12-22T03:38:46;14.70;;;2.80;;
5987;SDS011;3021;51.000;6.980;2023-12-22T03:41:12;14.73;;;3.22;;
5987;SDS011;3021;51.000;6.980;2023-12-22T03:43:37;20.58;;;2.55;;
5987;SDS011;3021;51.000;6.980;2023-12-22T03:46:02;30.17;;;4.18;;
5987;SDS011;3021;51.000;6.980;2023-12-22T03:48:28;23.95;;;2.95;;
5987;SDS011;3021;51.000;6.980;2023-12-22T03:50:53;18.55;;;3.22;;
5987;SDS011;3021;51.000;6.980;2023-12-22T03:53:18;15.68;;;3.17;;
5987;SDS011;3021;51.000;6.980;2023-12-22T03:55:44;29.58;;;3.92;;
5987;SDS011;3021;51.000;6.980;2023-12-22T03:58:10;22.92;;;3.20;;
5987;SDS011;3021;51.000;6.980;2023-12-22T04:00:35;20.48;;;3.63;;
5987;SDS011;3021;51.000;6.980;2023-12-22T04:03:01;22.88;;;4.18;;
5987;SDS011;3021;51.000;6.980;2023-12-22T04:05:27;29.67;;;4.28;;
5987;SDS011;3021;51.000;6.980;2023-12-22T04:07:52;19.92;;;3.75;;
5987;SDS011;3021;51.000;6.980;2023-12-22T04:10:18;29.92;;;3.45;;
5987;SDS011;3021;51.000;6.980;2023-12-22T04:12:43;27.17;;;4.03;;
5987;SDS011;3021;51.000;6.980;2023-12-22T04:15:09;24.58;;;3.70;;
5987;SDS011;3021;51.000;6.980;2023-12-22T04:17:34;21.75;;;3.28;;
5987;SDS011;3021;51.000;6.980;2023-12-22T04:19:59;25.05;;;3.83;;
5987;SDS011;3021;51.000;6.980;2023-12-22T04:22:25;22.50;;;3.53;;
5987;SDS011;3021;51.000;6.980;2023-12-22T04:24:50;25.23;;;3.80;;
5987;SDS011;3021;51.000;6.980;2023-12-22T04:27:16;15.35;;;3.13;;
5987;SDS011;3021;51.000;6.980;2023-12-22T04:29:41;30.48;;;3.47;;
5987;SDS011;3021;51.000;6.980;2023-12-22T04:32:06;20.65;;;3.60;;
5987;SDS011;3021;51.000;6.980;2023-12-22T04:34:32;31.15;;;3.15;;
5987;SDS011;3021;51.000;6.980;2023-12-22T04:36:57;27.48;;;3.65;;
5987;SDS011;3021;51.000;6.980;2023-12-22T04:39:22;17.40;;;3.22;;
5987;SDS011;3021;51.000;6.980;2023-12-22T04:41:48;22.05;;;3.00;;
5987;SDS011;3021;51.000;6.980;2023-12-22T04:44:13;23.02;;;3.80;;
5987;SDS011;3021;51.000;6.980;2023-12-22T04:46:38;20.83;;;3.50;;
5987;SDS011;3021;51.000;6.980;2023-12-22T04:49:04;17.60;;;3.60;;
5987;SDS011;3021;51.000;6.980;2023-12-22T04:51:29;24.05;;;3.75;;
5987;SDS011;3021;51.000;6.980;2023-12-22T04:53:54;28.65;;;3.80;;
5987;SDS011;3021;51.000;6.980;2023-12-22T04:56:20;29.52;;;3.90;;
5987;SDS011;3021;51.000;6.980;2023-12-22T04:58:45;22.42;;;3.50;;
5987;SDS011;3021;51.000;6.980;2023-12-22T05:01:11;27.70;;;3.65;;
5987;SDS011;3021;51.000;6.980;2023-12-22T05:03:36;28.65;;;3.67;;
5987;SDS011;3021;51.000;6.980;2023-12-22T05:06:02;23.80;;;3.50;;
5987;SDS011;3021;51.000;6.980;2023-12-22T05:08:27;25.85;;;3.67;;
5987;SDS011;3021;51.000;6.980;2023-12-22T05:10:52;20.30;;;3.50;;
5987;SDS011;3021;51.000;6.980;2023-12-22T05:13:18;27.35;;;3.15;;
5987;SDS011;3021;51.000;6.980;2023-12-22T05:15:44;25.05;;;3.10;;
5987;SDS011;3021;51.000;6.980;2023-12-22T05:18:10;31.75;;;3.80;;
5987;SDS011;3021;51.000;6.980;2023-12-22T05:20:35;24.15;;;2.95;;
5987;SDS011;3021;51.000;6.980;2023-12-22T05:23:01;21.88;;;3.30;;
5987;SDS011;3021;51.000;6.980;2023-12-22T05:25:26;29.27;;;3.50;;
5987;SDS011;3021;51.000;6.980;2023-12-22T05:27:52;24.35;;;3.45;;
5987;SDS011;3021;51.000;6.980;2023-12-22T05:30:17;20.80;;;3.28;;
5987;SDS011;3021;51.000;6.980;2023-12-22T05:32:43;25.05;;;3.50;;
5987;SDS011;3021;51.000;6.980;2023-12-22T05:35:09;28.20;;;4.47;;
5987;SDS011;3021;51.000;6.980;2023-12-22T05:37:35;20.38;;;3.38;;
5987;SDS011;3021;51.000;6.980;2023-12-22T05:40:00;21.58;;;3.40;;
5987;SDS011;3021;51.000;6.980;2023-12-22T05:42:26;27.95;;;4.18;;
5987;SDS011;3021;51.000;6.980;2023-12-22T05:44:51;30.60;;;4.22;;
5987;SDS011;3021;51.000;6.980;2023-12-22T05:47:16;21.52;;;3.75;;
5987;SDS011;3021;51.000;6.980;2023-12-22T05:49:43;26.20;;;3.50;;
5987;SDS011;3021;51.000;6.980;2023-12-22T05:52:08;28.13;;;4.40;;
5987;SDS011;3021;51.000;6.980;2023-12-22T05:54:37;21.63;;;3.67;;
5987;SDS011;3021;51.000;6.980;2023-12-22T05:57:03;18.63;;;3.25;;
5987;SDS011;3021;51.000;6.980;2023-12-22T05:59:30;30.73;;;3.88;;
5987;SDS011;3021;51.000;6.980;2023-12-22T06:01:57;24.88;;;3.20;;
5987;SDS011;3021;51.000;6.980;2023-12-22T06:04:23;17.13;;;3.05;;
5987;SDS011;3021;51.000;6.980;2023-12-22T06:06:49;24.98;;;3.50;;
5987;SDS011;3021;51.000;6.980;2023-12-22T06:09:15;26.63;;;4.35;;
5987;SDS011;3021;51.000;6.980;2023-12-22T06:11:40;22.20;;;3.28;;
5987;SDS011;3021;51.000;6.980;2023-12-22T06:14:06;23.33;;;3.15;;
5987;SDS011;3021;51.000;6.980;2023-12-22T06:16:31;18.05;;;3.20;;
5987;SDS011;3021;51.000;6.980;2023-12-22T06:18:56;16.90;;;3.70;;
5987;SDS011;3021;51.000;6.980;2023-12-22T06:21:22;19.40;;;3.47;;
5987;SDS011;3021;51.000;6.980;2023-12-22T06:23:47;21.83;;;3.47;;
5987;SDS011;3021;51.000;6.980;2023-12-22T06:26:13;21.80;;;3.22;;
5987;SDS011;3021;51.000;6.980;2023-12-22T06:28:38;15.13;;;2.78;;
5987;SDS011;3021;51.000;6.980;2023-12-22T06:31:08;15.07;;;3.00;;
5987;SDS011;3021;51.000;6.980;2023-12-22T06:33:44;16.40;;;3.72;;
5987;SDS011;3021;51.000;6.980;2023-12-22T06:38:45;20.27;;;4.97;;
5987;SDS011;3021;51.000;6.980;2023-12-22T06:41:18;24.77;;;3.55;;
5987;SDS011;3021;51.000;6.980;2023-12-22T06:43:50;18.35;;;3.72;;
5987;SDS011;3021;51.000;6.980;2023-12-22T06:46:17;14.52;;;2.85;;
5987;SDS011;3021;51.000;6.980;2023-12-22T06:48:43;23.48;;;3.72;;
5987;SDS011;3021;51.000;6.980;2023-12-22T06:51:16;24.17;;;3.22;;
5987;SDS011;3021;51.000;6.980;2023-12-22T06:53:43;21.15;;;3.95;;
5987;SDS011;3021;51.000;6.980;2023-12-22T06:56:21;21.55;;;3.50;;
5987;SDS011;3021;51.000;6.980;2023-12-22T06:58:48;24.60;;;4.00;;
5987;SDS011;3021;51.000;6.980;2023-12-22T07:01:33;20.13;;;3.33;;
5987;SDS011;3021;51.000;6.980;2023-12-22T07:06:25;9.05;;;2.13;;
5987;SDS011;3021;51.000;6.980;2023-12-22T07:11:37;10.68;;;2.17;;
5987;SDS011;3021;51.000;6.980;2023-12-22T07:14:02;9.55;;;1.85;;
5987;SDS011;3021;51.000;6.980;2023-12-22T07:16:28;9.88;;;2.15;;
5987;SDS011;3021;51.000;6.980;2023-12-22T07:18:53;13.48;;;1.83;;
5987;SDS011;3021;51.000;6.980;2023-12-22T07:21:18;10.25;;;2.03;;
5987;SDS011;3021;51.000;6.980;2023-12-22T07:23:44;9.38;;;2.05;;
5987;SDS011;3021;51.000;6.980;2023-12-22T07:26:10;10.05;;;2.58;;
5987;SDS011;3021;51.000;6.980;2023-12-22T07:28:35;11.02;;;2.53;;
5987;SDS011;3021;51.000;6.980;2023-12-22T07:31:01;10.07;;;2.08;;
5987;SDS011;3021;51.000;6.980;2023-12-22T07:33:26;9.02;;;2.28;;
5987;SDS011;3021;51.000;6.980;2023-12-22T07:35:51;15.73;;;2.50;;
5987;SDS011;3021;51.000;6.980;2023-12-22T07:38:17;10.65;;;2.00;;
5987;SDS011;3021;51.000;6.980;2023-12-22T07:40:42;16.85;;;2.53;;
5987;SDS011;3021;51.000;6.980;2023-12-22T07:43:07;11.88;;;2.10;;
5987;SDS011;3021;51.000;6.980;2023-12-22T07:45:33;11.73;;;2.78;;
5987;SDS011;3021;51.000;6.980;2023-12-22T07:47:59;10.55;;;2.30;;
5987;SDS011;3021;51.000;6.980;2023-12-22T07:50:24;12.80;;;2.58;;
5987;SDS011;3021;51.000;6.980;2023-12-22T07:52:49;12.73;;;2.95;;
5987;SDS011;3021;51.000;6.980;2023-12-22T07:55:15;13.63;;;2.28;;
5987;SDS011;3021;51.000;6.980;2023-12-22T07:57:40;16.20;;;2.88;;
5987;SDS011;3021;51.000;6.980;2023-12-22T08:00:06;12.18;;;2.45;;
5987;SDS011;3021;51.000;6.980;2023-12-22T08:02:34;13.40;;;3.10;;
5987;SDS011;3021;51.000;6.980;2023-12-22T08:04:59;16.55;;;3.60;;
5987;SDS011;3021;51.000;6.980;2023-12-22T08:07:25;13.55;;;2.95;;
5987;SDS011;3021;51.000;6.980;2023-12-22T08:09:50;19.98;;;3.55;;
5987;SDS011;3021;51.000;6.980;2023-12-22T08:12:16;24.23;;;3.63;;
5987;SDS011;3021;51.000;6.980;2023-12-22T08:14:41;26.08;;;3.58;;
5987;SDS011;3021;51.000;6.980;2023-12-22T08:17:07;30.10;;;4.78;;
5987;SDS011;3021;51.000;6.980;2023-12-22T08:19:32;34.72;;;5.25;;
5987;SDS011;3021;51.000;6.980;2023-12-22T08:21:57;38.03;;;6.00;;
5987;SDS011;3021;51.000;6.980;2023-12-22T08:24:23;38.72;;;5.78;;
5987;SDS011;3021;51.000;6.980;2023-12-22T08:26:49;36.63;;;5.88;;
5987;SDS011;3021;51.000;6.980;2023-12-22T08:29:15;32.45;;;6.20;;
5987;SDS011;3021;51.000;6.980;2023-12-22T08:31:44;43.00;;;7.15;;
5987;SDS011;3021;51.000;6.980;2023-12-22T08:34:10;45.65;;;7.05;;
5987;SDS011;3021;51.000;6.980;2023-12-22T08:36:35;41.63;;;7.03;;
5987;SDS011;3021;51.000;6.980;2023-12-22T08:39:00;52.60;;;7.85;;
5987;SDS011;3021;51.000;6.980;2023-12-22T08:41:26;47.13;;;7.25;;
5987;SDS011;3021;51.000;6.980;2023-12-22T08:43:52;44.40;;;7.00;;
5987;SDS011;3021;51.000;6.980;2023-12-22T08:46:17;43.72;;;7.35;;
5987;SDS011;3021;51.000;6.980;2023-12-22T08:48:43;54.72;;;8.02;;
5987;SDS011;3021;51.000;6.980;2023-12-22T08:51:08;48.85;;;8.45;;
5987;SDS011;3021;51.000;6.980;2023-12-22T08:53:34;45.05;;;8.18;;
5987;SDS011;3021;51.000;6.980;2023-12-22T08:56:02;50.63;;;7.80;;
5987;SDS011;3021;51.000;6.980;2023-12-22T08:58:28;38.85;;;7.80;;
5987;SDS011;3021;51.000;6.980;2023-12-22T09:00:54;44.88;;;6.50;;
5987;SDS011;3021;51.000;6.980;2023-12-22T09:03:19;51.28;;;7.03;;
5987;SDS011;3021;51.000;6.980;2023-12-22T09:05:45;45.10;;;7.15;;
5987;SDS011;3021;51.000;6.980;2023-12-22T09:08:12;41.83;;;6.53;;
5987;SDS011;3021;51.000;6.980;2023-12-22T09:10:37;42.17;;;7.10;;
5987;SDS011;3021;51.000;6.980;2023-12-22T09:13:02;40.40;;;7.00;;
5987;SDS011;3021;51.000;6.980;2023-12-22T09:15:28;38.35;;;6.45;;
5987;SDS011;3021;51.000;6.980;2023-12-22T09:17:53;27.63;;;5.35;;
5987;SDS011;3021;51.000;6.980;2023-12-22T09:20:20;44.83;;;7.03;;
5987;SDS011;3021;51.000;6.980;2023-12-22T09:22:46;38.83;;;7.18;;
5987;SDS011;3021;51.000;6.980;2023-12-22T09:25:11;41.45;;;6.32;;
5987;SDS011;3021;51.000;6.980;2023-12-22T09:27:37;31.17;;;5.63;;
5987;SDS011;3021;51.000;6.980;2023-12-22T09:30:03;44.50;;;5.82;;
5987;SDS011;3021;51.000;6.980;2023-12-22T09:32:31;37.70;;;6.30;;
5987;SDS011;3021;51.000;6.980;2023-12-22T09:34:57;37.92;;;5.85;;
5987;SDS011;3021;51.000;6.980;2023-12-22T09:37:24;28.48;;;5.85;;
5987;SDS011;3021;51.000;6.980;2023-12-22T09:39:49;37.00;;;5.25;;
5987;SDS011;3021;51.000;6.980;2023-12-22T09:42:14;33.30;;;6.18;;
5987;SDS011;3021;51.000;6.980;2023-12-22T09:44:41;30.02;;;5.63;;
5987;SDS011;3021;51.000;6.980;2023-12-22T09:47:07;24.55;;;4.78;;
5987;SDS011;3021;51.000;6.980;2023-12-22T09:49:37;29.15;;;5.50;;
5987;SDS011;3021;51.000;6.980;2023-12-22T09:52:04;29.45;;;5.90;;
5987;SDS011;3021;51.000;6.980;2023-12-22T09:54:31;22.45;;;5.18;;
5987;SDS011;3021;51.000;6.980;2023-12-22T09:56:58;31.33;;;6.15;;
5987;SDS011;3021;51.000;6.980;2023-12-22T09:59:25;22.65;;;4.95;;
5987;SDS011;3021;51.000;6.980;2023-12-22T10:01:53;25.55;;;5.25;;
5987;SDS011;3021;51.000;6.980;2023-12-22T10:04:20;22.10;;;4.50;;
5987;SDS011;3021;51.000;6.980;2023-12-22T10:06:46;25.98;;;5.03;;
5987;SDS011;3021;51.000;6.980;2023-12-22T10:09:13;22.67;;;4.82;;
5987;SDS011;3021;51.000;6.980;2023-12-22T10:11:41;19.13;;;4.28;;
5987;SDS011;3021;51.000;6.980;2023-12-22T10:14:09;20.98;;;4.60;;
5987;SDS011;3021;51.000;6.980;2023-12-22T10:16:35;24.73;;;4.13;;
5987;SDS011;3021;51.000;6.980;2023-12-22T10:19:01;25.65;;;4.65;;
5987;SDS011;3021;51.000;6.980;2023-12-22T10:21:28;19.05;;;4.45;;
5987;SDS011;3021;51.000;6.980;2023-12-22T10:23:56;21.15;;;4.30;;
5987;SDS011;3021;51.000;6.980;2023-12-22T10:26:21;17.80;;;3.47;;
5987;SDS011;3021;51.000;6.980;2023-12-22T10:28:47;14.50;;;3.03;;
5987;SDS011;3021;51.000;6.980;2023-12-22T10:31:13;12.15;;;3.30;;
5987;SDS011;3021;51.000;6.980;2023-12-22T10:33:39;10.52;;;2.72;;
5987;SDS011;3021;51.000;6.980;2023-12-22T10:36:05;10.00;;;2.60;;
5987;SDS011;3021;51.000;6.980;2023-12-22T10:38:33;6.93;;;2.28;;
5987;SDS011;3021;51.000;6.980;2023-12-22T10:41:00;8.75;;;2.88;;
5987;SDS011;3021;51.000;6.980;2023-12-22T10:43:26;10.07;;;2.55;;
5987;SDS011;3021;51.000;6.980;2023-12-22T10:45:52;8.13;;;2.35;;
5987;SDS011;3021;51.000;6.980;2023-12-22T10:48:17;8.52;;;2.60;;
5987;SDS011;3021;51.000;6.980;2023-12-22T10:50:43;6.07;;;2.33;;
5987;SDS011;3021;51.000;6.980;2023-12-22T10:53:10;6.40;;;3.22;;
5987;SDS011;3021;51.000;6.980;2023-12-22T10:55:36;8.10;;;3.08;;
5987;SDS011;3021;51.000;6.980;2023-12-22T10:58:02;14.35;;;3.15;;
5987;SDS011;3021;51.000;6.980;2023-12-22T11:00:28;7.85;;;3.08;;
5987;SDS011;3021;51.000;6.980;2023-12-22T11:02:56;10.15;;;3.40;;
5987;SDS011;3021;51.000;6.980;2023-12-22T11:05:27;10.63;;;3.65;;
5987;SDS011;3021;51.000;6.980;2023-12-22T11:07:54;7.43;;;3.10;;
5987;SDS011;3021;51.000;6.980;2023-12-22T11:10:26;7.32;;;3.08;;
5987;SDS011;3021;51.000;6.980;2023-12-22T11:12:52;7.65;;;3.10;;
5987;SDS011;3021;51.000;6.980;2023-12-22T11:15:21;9.43;;;2.88;;
5987;SDS011;3021;51.000;6.980;2023-12-22T11:17:48;6.43;;;2.90;;
5987;SDS011;3021;51.000;6.980;2023-12-22T11:20:13;5.80;;;2.63;;
5987;SDS011;3021;51.000;6.980;2023-12-22T11:22:40;8.38;;;2.50;;
5987;SDS011;3021;51.000;6.980;2023-12-22T11:25:07;6.28;;;2.60;;
5987;SDS011;3021;51.000;6.980;2023-12-22T11:27:34;6.97;;;2.90;;
5987;SDS011;3021;51.000;6.980;2023-12-22T11:30:02;5.95;;;2.65;;
5987;SDS011;3021;51.000;6.980;2023-12-22T11:32:33;9.52;;;2.63;;
5987;SDS011;3021;51.000;6.980;2023-12-22T11:34:59;7.47;;;2.35;;
5987;SDS011;3021;51.000;6.980;2023-12-22T11:37:24;7.53;;;2.83;;
5987;SDS011;3021;51.000;6.980;2023-12-22T11:39:50;4.82;;;2.38;;
5987;SDS011;3021;51.000;6.980;2023-12-22T11:42:18;4.05;;;2.50;;
5987;SDS011;3021;51.000;6.980;2023-12-22T11:44:48;8.70;;;2.40;;
5987;SDS011;3021;51.000;6.980;2023-12-22T11:47:13;6.13;;;2.30;;
5987;SDS011;3021;51.000;6.980;2023-12-22T11:49:39;6.45;;;2.30;;
5987;SDS011;3021;51.000;6.980;2023-12-22T11:52:48;6.65;;;2.70;;
5987;SDS011;3021;51.000;6.980;2023-12-22T11:54:54;4.97;;;2.42;;
5987;SDS011;3021;51.000;6.980;2023-12-22T11:59:52;5.65;;;2.35;;
5987;SDS011;3021;51.000;6.980;2023-12-22T12:02:18;7.93;;;2.55;;
5987;SDS011;3021;51.000;6.980;2023-12-22T12:04:46;4.35;;;2.05;;
5987;SDS011;3021;51.000;6.980;2023-12-22T12:10:06;7.60;;;2.47;;
5987;SDS011;3021;51.000;6.980;2023-12-22T12:12:36;8.98;;;2.42;;
5987;SDS011;3021;51.000;6.980;2023-12-22T12:15:09;5.00;;;2.15;;
5987;SDS011;3021;51.000;6.980;2023-12-22T12:17:38;4.82;;;2.13;;
5987;SDS011;3021;51.000;6.980;2023-12-22T12:20:06;9.68;;;2.30;;
5987;SDS011;3021;51.000;6.980;2023-12-22T12:22:33;6.10;;;1.80;;
5987;SDS011;3021;51.000;6.980;2023-12-22T12:24:59;6.85;;;2.20;;
5987;SDS011;3021;51.000;6.980;2023-12-22T12:27:26;3.25;;;1.70;;
5987;SDS011;3021;51.000;6.980;2023-12-22T12:29:52;9.48;;;2.05;;
5987;SDS011;3021;51.000;6.980;2023-12-22T12:32:18;6.25;;;1.55;;
5987;SDS011;3021;51.000;6.980;2023-12-22T12:34:43;5.20;;;1.90;;
5987;SDS011;3021;51.000;6.980;2023-12-22T12:37:09;5.82;;;1.90;;
5987;SDS011;3021;51.000;6.980;2023-12-22T12:39:35;7.53;;;1.92;;
5987;SDS011;3021;51.000;6.980;2023-12-22T12:42:05;4.63;;;1.73;;
5987;SDS011;3021;51.000;6.980;2023-12-22T12:44:33;7.05;;;1.52;;
5987;SDS011;3021;51.000;6.980;2023-12-22T12:47:00;8.35;;;1.75;;
5987;SDS011;3021;51.000;6.980;2023-12-22T12:49:36;4.40;;;1.73;;
5987;SDS011;3021;51.000;6.980;2023-12-22T12:52:02;4.35;;;1.45;;
5987;SDS011;3021;51.000;6.980;2023-12-22T12:54:27;5.20;;;1.50;;
5987;SDS011;3021;51.000;6.980;2023-12-22T12:56:53;4.07;;;1.35;;
5987;SDS011;3021;51.000;6.980;2023-12-22T12:59:18;5.95;;;1.88;;
5987;SDS011;3021;51.000;6.980;2023-12-22T13:01:45;5.28;;;1.42;;
5987;SDS011;3021;51.000;6.980;2023-12-22T13:04:11;9.63;;;1.67;;
5987;SDS011;3021;51.000;6.980;2023-12-22T13:06:46;5.85;;;1.23;;
5987;SDS011;3021;51.000;6.980;2023-12-22T13:09:12;7.80;;;2.08;;
5987;SDS011;3021;51.000;6.980;2023-12-22T13:11:41;5.78;;;1.90;;
5987;SDS011;3021;51.000;6.980;2023-12-22T13:14:11;7.05;;;1.60;;
5987;SDS011;3021;51.000;6.980;2023-12-22T13:16:40;5.25;;;1.45;;
5987;SDS011;3021;51.000;6.980;2023-12-22T13:19:05;3.63;;;1.45;;
5987;SDS011;3021;51.000;6.980;2023-12-22T13:21:31;5.43;;;1.50;;
5987;SDS011;3021;51.000;6.980;2023-12-22T13:24:16;2.72;;;1.40;;
5987;SDS011;3021;51.000;6.980;2023-12-22T13:26:42;4.40;;;1.38;;
5987;SDS011;3021;51.000;6.980;2023-12-22T13:29:09;7.63;;;1.52;;
5987;SDS011;3021;51.000;6.980;2023-12-22T13:31:39;3.95;;;1.50;;
5987;SDS011;3021;51.000;6.980;2023-12-22T13:34:12;5.45;;;1.52;;
5987;SDS011;3021;51.000;6.980;2023-12-22T13:36:39;5.80;;;1.30;;
5987;SDS011;3021;51.000;6.980;2023-12-22T13:39:05;7.72;;;1.88;;
5987;SDS011;3021;51.000;6.980;2023-12-22T13:41:38;5.78;;;1.67;;
5987;SDS011;3021;51.000;6.980;2023-12-22T13:44:10;6.18;;;1.60;;
5987;SDS011;3021;51.000;6.980;2023-12-22T13:46:36;4.55;;;1.67;;
5987;SDS011;3021;51.000;6.980;2023-12-22T13:49:02;3.25;;;1.20;;
5987;SDS011;3021;51.000;6.980;2023-12-22T13:51:49;3.50;;;1.40;;
5987;SDS011;3021;51.000;6.980;2023-12-22T13:54:13;4.32;;;1.35;;
5987;SDS011;3021;51.000;6.980;2023-12-22T13:56:39;7.43;;;1.75;;
5987;SDS011;3021;51.000;6.980;2023-12-22T13:59:08;10.02;;;1.70;;
5987;SDS011;3021;51.000;6.980;2023-12-22T14:01:34;7.93;;;1.50;;
5987;SDS011;3021;51.000;6.980;2023-12-22T14:04:00;8.00;;;1.58;;
5987;SDS011;3021;51.000;6.980;2023-12-22T14:06:25;10.00;;;1.60;;
5987;SDS011;3021;51.000;6.980;2023-12-22T14:08:52;5.10;;;1.52;;
5987;SDS011;3021;51.000;6.980;2023-12-22T14:11:18;12.63;;;2.20;;
5987;SDS011;3021;51.000;6.980;2023-12-22T14:13:44;6.88;;;1.95;;
5987;SDS011;3021;51.000;6.980;2023-12-22T14:16:09;8.38;;;1.92;;
5987;SDS011;3021;51.000;6.980;2023-12-22T14:18:35;9.18;;;2.40;;
5987;SDS011;3021;51.000;6.980;2023-12-22T14:21:00;8.10;;;2.22;;
5987;SDS011;3021;51.000;6.980;2023-12-22T14:23:26;7.22;;;2.35;;
5987;SDS011;3021;51.000;6.980;2023-12-22T14:25:52;8.23;;;2.15;;
5987;SDS011;3021;51.000;6.980;2023-12-22T14:28:18;8.02;;;2.35;;
5987;SDS011;3021;51.000;6.980;2023-12-22T14:30:44;11.85;;;2.78;;
5987;SDS011;3021;51.000;6.980;2023-12-22T14:33:09;10.43;;;3.03;;
5987;SDS011;3021;51.000;6.980;2023-12-22T14:35:38;8.05;;;2.78;;
5987;SDS011;3021;51.000;6.980;2023-12-22T14:38:03;12.50;;;2.72;;
5987;SDS011;3021;51.000;6.980;2023-12-22T14:40:29;6.65;;;2.67;;
5987;SDS011;3021;51.000;6.980;2023-12-22T14:42:54;14.77;;;2.75;;
5987;SDS011;3021;51.000;6.980;2023-12-22T14:45:19;13.90;;;3.13;;
5987;SDS011;3021;51.000;6.980;2023-12-22T14:47:45;9.27;;;2.78;;
5987;SDS011;3021;51.000;6.980;2023-12-22T14:50:11;15.10;;;3.33;;
5987;SDS011;3021;51.000;6.980;2023-12-22T14:52:36;11.23;;;2.78;;
5987;SDS011;3021;51.000;6.980;2023-12-22T14:55:02;13.10;;;2.88;;
5987;SDS011;3021;51.000;6.980;2023-12-22T14:57:29;10.27;;;2.72;;
5987;SDS011;3021;51.000;6.980;2023-12-22T14:59:54;12.38;;;2.55;;
5987;SDS011;3021;51.000;6.980;2023-12-22T15:02:20;11.05;;;2.70;;
5987;SDS011;3021;51.000;6.980;2023-12-22T15:04:45;7.75;;;2.20;;
5987;SDS011;3021;51.000;6.980;2023-12-22T15:07:14;10.63;;;2.42;;
5987;SDS011;3021;51.000;6.980;2023-12-22T15:09:41;5.28;;;2.25;;
5987;SDS011;3021;51.000;6.980;2023-12-22T15:12:07;6.53;;;2.28;;
5987;SDS011;3021;51.000;6.980;2023-12-22T15:14:32;9.63;;;2.30;;